Hauptseite
METAR-TAF:

METAR-TAF

Flughäfen :

Flughafen Rodez-Aveyron

Rodez, Frankreich

Breite: 44-24N, Länge: 002-29E, Höhe: 581 m

Beobachtung

Neuester Wetterbericht von vor 13 Minuten, um 19:00 UTC
Wind 8 kt aus Ost
Temperatur 6°C
Luftfeuchtigkeit 65%
Luftdruck 1013 hPa
Sichtweite 10 km oder mehr
keine Wolken unter 1500 m und keine Kumulonimbus oder Gewitterwolken

METAR: LFCR 181900Z AUTO 09008KT CAVOK 06/M00 Q1013 NOSIG

Zeit: 20:13 (19:13 UTC)

Prognose

Neuester Wetterbericht von vor 2 Stunden und 13 Minuten, um 17:00 UTC
Gültige Prognose vom 18 um 18 UTC bis 19 um 18 UTC
Wind 9 kt aus Ost
Sichtweite 10 km oder mehr
keine Wolken unter 1500 m und keine Kumulonimbus oder Gewitterwolken
Zeitweise
vom 19 um 09 UTC bis 19 um 18 UTC
Durchbrochene Bewölkung in der Höhe von 1200 ft
Leichtregen

TAF: LFCR 181700Z 1818/1918 10009KT CAVOK TEMPO 1909/1918 -RA BKN012

Wetterbeobachtungen und Prognosen von mehr als 4000 Flughäfen (METAR und TAF Bericht).

Die verfügbaren Stationen werden durch gelbe und rote Markierungen auf der Karte dargestellt.

Führen Sie die Maus auf sie, um den Namen der Station zu sehen.

Darauf klicken, um die Beobachtung von Wetterbeobachtungen und Prognosen zu sehen.

Um die Karte zu ändern : klicken Sie auf den grünen Tasten mit einem schwarzen Kreuz Zum Vergrößern, auf den grünen Button mit einem Gedankenstrich zu verkleinern, oder auf die grünen Pfeile für benachbarte Karten.


METAR-TAF: